Patapsco — WDB2652 — position and weather

sailwx.info

Track history (hours):
 
Tides and Currents Weather Stations Pressure Air Temp Water Temp Dewpoint Dewpoint Depression Visibility Wind Speed Wind Dir Waves Ship Positions

Patapsco

Owner: ASSOCIATION OF MARYLAND PILOTS, BALTIMORE, MD. More information available from US FCC via Universal Licensing System and Coast Guard Vessel Documentation Center.

Last reported at 2017-Dec-10 21:25 UTC. Time now 2017-Dec-12 21:59 UTC.
Position N 36°54' W 076°05'.

Length 17 m; draft 1.5 m.

Type: Pilot. MMSI: 366878280.

Date/timePositionNaut miles runAvg speedWind from/ knotsBaromVisibWave heightAir tempDewpointWater temp
2017-Dec-10 21:25N 36°54' W 076°05'0 0.0
2017-Dec-10 18:27N 36°54' W 076°05'0 0.0
2017-Dec-10 15:29N 36°54' W 076°05'0 0.0
2017-Dec-10 12:30N 36°54' W 076°05'0 0.0
2017-Dec-09 21:47N 36°54' W 076°05'0 0.0
2017-Dec-09 21:21N 36°54' W 076°05'0 0.0
2017-Dec-09 20:59N 36°54' W 076°05'0 0.0
2017-Dec-09 20:26N 36°54' W 076°05'0 0.0
2017-Dec-09 19:55N 36°54' W 076°05'0 0.0
2017-Dec-09 19:30N 36°54' W 076°05'0 0.0
2017-Dec-09 18:59N 36°54' W 076°05'0 0.0
2017-Dec-09 18:30N 36°54' W 076°05'0 0.0
2017-Dec-09 18:00N 36°54' W 076°05'0 0.0
2017-Dec-09 17:29N 36°54' W 076°05'0 0.0
2017-Dec-09 16:59N 36°54' W 076°05'0 0.0
2017-Dec-09 16:30N 36°54' W 076°05'0 0.0
2017-Dec-09 16:00N 36°54' W 076°05'0 0.0
2017-Dec-09 15:30N 36°54' W 076°05'0 0.0
2017-Dec-09 15:00N 36°54' W 076°05'0 0.0
2017-Dec-09 14:22N 36°54' W 076°05'0 0.0
2017-Dec-09 13:58N 36°54' W 076°05'0 0.0
2017-Dec-09 02:10N 36°54' W 076°05'516.0
2017-Dec-09 01:52N 36°57' W 076°01'5 0.2
2017-Dec-07 21:33N 36°54' W 076°05'0 2.3
2017-Dec-07 21:30N 36°54' W 076°05'815.5
2017-Dec-07 21:00N 36°56' W 075°56'612.3
2017-Dec-07 20:30N 36°56' W 076°04'2 2.1
2017-Dec-07 19:30N 36°54' W 076°05'  
2017-Dec-04 01:20N 36°54' W 076°05'411.9
2017-Dec-04 01:00N 36°57' W 076°02'5 8.9
2017-Dec-04 00:27N 36°56' W 075°56'8 1.5
2017-Dec-03 19:22N 36°54' W 076°05'513.5
2017-Dec-03 18:59N 36°56' W 075°59'3 6.1
2017-Dec-03 18:30N 36°56' W 076°02'3 2.6
2017-Dec-03 17:18N 36°54' W 076°05'0 0.0
2017-Dec-03 16:54N 36°54' W 076°05'0 0.0
2017-Dec-03 16:05N 36°54' W 076°05'0 0.0
2017-Dec-03 15:44N 36°54' W 076°05'0 0.0
2017-Dec-03 15:24N 36°54' W 076°05'0 0.0
2017-Dec-03 13:18N 36°54' W 076°05'0 0.0
2017-Dec-03 12:56N 36°54' W 076°05'0 0.0
2017-Dec-03 12:30N 36°54' W 076°05'0 0.0
2017-Dec-03 07:11N 36°54' W 076°05'212.4
2017-Dec-03 07:00N 36°56' W 076°03'6 8.6
2017-Dec-03 06:17N 36°56' W 075°55'517.4
2017-Dec-03 05:59N 36°56' W 076°02'4 0.3
2017-Dec-02 17:27N 36°54' W 076°05'0 0.0
2017-Dec-02 16:53N 36°54' W 076°05'0 0.0
2017-Dec-02 16:29N 36°54' W 076°05'0 0.0
2017-Dec-02 16:00N 36°54' W 076°05'0 0.0
2017-Dec-02 15:28N 36°54' W 076°05'0 0.0
2017-Dec-02 14:55N 36°54' W 076°05'0 0.0
2017-Dec-02 14:30N 36°54' W 076°05'0 0.0
2017-Dec-02 14:00N 36°54' W 076°05'0 0.0
2017-Dec-02 13:28N 36°54' W 076°05'0 0.0
2017-Dec-02 12:56N 36°54' W 076°05'0 0.0
2017-Dec-01 21:20N 36°54' W 076°05'0 0.0
2017-Dec-01 20:34N 36°54' W 076°05'0 0.0
2017-Dec-01 20:30N 36°54' W 076°05'0 0.0
2017-Dec-01 19:58N 36°54' W 076°05'0 0.0
2017-Dec-01 19:30N 36°54' W 076°05'0 0.0
2017-Dec-01 18:59N 36°54' W 076°05'0 0.0
2017-Dec-01 18:27N 36°54' W 076°05'0 0.0
2017-Dec-01 18:00N 36°54' W 076°05'0 0.0
2017-Dec-01 17:29N 36°54' W 076°05'0 0.0
2017-Dec-01 16:48N 36°54' W 076°05'0 0.0
2017-Dec-01 16:30N 36°54' W 076°05'0 0.0
2017-Dec-01 15:58N 36°54' W 076°05'0 0.0
2017-Dec-01 15:29N 36°54' W 076°05'0 0.0
2017-Dec-01 14:57N 36°54' W 076°05'0 0.0
2017-Dec-01 14:29N 36°54' W 076°05'0 0.0
2017-Dec-01 13:58N 36°54' W 076°05'0 0.0
2017-Dec-01 12:36N 36°54' W 076°05'0 0.0
2017-Dec-01 12:22N 36°54' W 076°05'0 0.0
2017-Dec-01 10:51N 36°54' W 076°05'0 0.0
2017-Nov-30 22:09N 36°54' W 076°05'0 0.0
2017-Nov-30 21:47N 36°54' W 076°05'0 0.0
2017-Nov-30 21:30N 36°54' W 076°05'  
Track history (hours):
 
Tides and Currents Weather Stations Pressure Air Temp Water Temp Dewpoint Dewpoint Depression Visibility Wind Speed Wind Dir Waves Ship Positions

Patapsco

Owner: ASSOCIATION OF MARYLAND PILOTS, BALTIMORE, MD. More information available from US FCC via Universal Licensing System and Coast Guard Vessel Documentation Center.

Last reported at 2017-Dec-10 21:25 UTC. Time now 2017-Dec-12 21:59 UTC.
Position N 36°54' W 076°05'.

Length 17 m; draft 1.5 m.

Type: Pilot. MMSI: 366878280.

Date/timePositionNaut miles runAvg speedWind from/ knotsBaromVisibWave heightAir tempDewpointWater temp
2017-Dec-10 21:25N 36°54' W 076°05'0 0.0
2017-Dec-10 18:27N 36°54' W 076°05'0 0.0
2017-Dec-10 15:29N 36°54' W 076°05'0 0.0
2017-Dec-10 12:30N 36°54' W 076°05'0 0.0
2017-Dec-09 21:47N 36°54' W 076°05'0 0.0
2017-Dec-09 21:21N 36°54' W 076°05'0 0.0
2017-Dec-09 20:59N 36°54' W 076°05'0 0.0
2017-Dec-09 20:26N 36°54' W 076°05'0 0.0
2017-Dec-09 19:55N 36°54' W 076°05'0 0.0
2017-Dec-09 19:30N 36°54' W 076°05'0 0.0
2017-Dec-09 18:59N 36°54' W 076°05'0 0.0
2017-Dec-09 18:30N 36°54' W 076°05'0 0.0
2017-Dec-09 18:00N 36°54' W 076°05'0 0.0
2017-Dec-09 17:29N 36°54' W 076°05'0 0.0
2017-Dec-09 16:59N 36°54' W 076°05'0 0.0
2017-Dec-09 16:30N 36°54' W 076°05'0 0.0
2017-Dec-09 16:00N 36°54' W 076°05'0 0.0
2017-Dec-09 15:30N 36°54' W 076°05'0 0.0
2017-Dec-09 15:00N 36°54' W 076°05'0 0.0
2017-Dec-09 14:22N 36°54' W 076°05'0 0.0
2017-Dec-09 13:58N 36°54' W 076°05'0 0.0
2017-Dec-09 02:10N 36°54' W 076°05'516.0
2017-Dec-09 01:52N 36°57' W 076°01'5 0.2
2017-Dec-07 21:33N 36°54' W 076°05'0 2.3
2017-Dec-07 21:30N 36°54' W 076°05'815.5
2017-Dec-07 21:00N 36°56' W 075°56'612.3
2017-Dec-07 20:30N 36°56' W 076°04'2 2.1
2017-Dec-07 19:30N 36°54' W 076°05'  
2017-Dec-04 01:20N 36°54' W 076°05'411.9
2017-Dec-04 01:00N 36°57' W 076°02'5 8.9
2017-Dec-04 00:27N 36°56' W 075°56'8 1.5
2017-Dec-03 19:22N 36°54' W 076°05'513.5
2017-Dec-03 18:59N 36°56' W 075°59'3 6.1
2017-Dec-03 18:30N 36°56' W 076°02'3 2.6
2017-Dec-03 17:18N 36°54' W 076°05'0 0.0
2017-Dec-03 16:54N 36°54' W 076°05'0 0.0
2017-Dec-03 16:05N 36°54' W 076°05'0 0.0
2017-Dec-03 15:44N 36°54' W 076°05'0 0.0
2017-Dec-03 15:24N 36°54' W 076°05'0 0.0
2017-Dec-03 13:18N 36°54' W 076°05'0 0.0
2017-Dec-03 12:56N 36°54' W 076°05'0 0.0
2017-Dec-03 12:30N 36°54' W 076°05'0 0.0
2017-Dec-03 07:11N 36°54' W 076°05'212.4
2017-Dec-03 07:00N 36°56' W 076°03'6 8.6
2017-Dec-03 06:17N 36°56' W 075°55'517.4
2017-Dec-03 05:59N 36°56' W 076°02'4 0.3
2017-Dec-02 17:27N 36°54' W 076°05'0 0.0
2017-Dec-02 16:53N 36°54' W 076°05'0 0.0
2017-Dec-02 16:29N 36°54' W 076°05'0 0.0
2017-Dec-02 16:00N 36°54' W 076°05'0 0.0
2017-Dec-02 15:28N 36°54' W 076°05'0 0.0
2017-Dec-02 14:55N 36°54' W 076°05'0 0.0
2017-Dec-02 14:30N 36°54' W 076°05'0 0.0
2017-Dec-02 14:00N 36°54' W 076°05'0 0.0
2017-Dec-02 13:28N 36°54' W 076°05'0 0.0
2017-Dec-02 12:56N 36°54' W 076°05'0 0.0
2017-Dec-01 21:20N 36°54' W 076°05'0 0.0
2017-Dec-01 20:34N 36°54' W 076°05'0 0.0
2017-Dec-01 20:30N 36°54' W 076°05'0 0.0
2017-Dec-01 19:58N 36°54' W 076°05'0 0.0
2017-Dec-01 19:30N 36°54' W 076°05'0 0.0
2017-Dec-01 18:59N 36°54' W 076°05'0 0.0
2017-Dec-01 18:27N 36°54' W 076°05'0 0.0
2017-Dec-01 18:00N 36°54' W 076°05'0 0.0
2017-Dec-01 17:29N 36°54' W 076°05'0 0.0
2017-Dec-01 16:48N 36°54' W 076°05'0 0.0
2017-Dec-01 16:30N 36°54' W 076°05'0 0.0
2017-Dec-01 15:58N 36°54' W 076°05'0 0.0
2017-Dec-01 15:29N 36°54' W 076°05'0 0.0
2017-Dec-01 14:57N 36°54' W 076°05'0 0.0
2017-Dec-01 14:29N 36°54' W 076°05'0 0.0
2017-Dec-01 13:58N 36°54' W 076°05'0 0.0
2017-Dec-01 12:36N 36°54' W 076°05'0 0.0
2017-Dec-01 12:22N 36°54' W 076°05'0 0.0
2017-Dec-01 10:51N 36°54' W 076°05'0 0.0
2017-Nov-30 22:09N 36°54' W 076°05'0 0.0
2017-Nov-30 21:47N 36°54' W 076°05'0 0.0
2017-Nov-30 21:30N 36°54' W 076°05'  

Dump ship's entire track history